Webcam Flughafen St.Gallen-Altenrhein

Live-Bilder und Zeitraffer LSZR / ACH.

 

Live aus Altenrhein
LIVE
LSZR 101120Z AUTO 29007KT CAVOK 17/10 Q1023
Zeitraffer heute
2020-04-10 00:13:50
LSZR 092150Z AUTO VRB01KT CAVOK 09/06 Q1023